Time;durP1;ratioP1;P1;durP2;ratioP2;P2;SDS_P1;SDS_P2;PMS_P1;PMS_P2;Temp;Humidity;BMP_temperature;BMP_pressure;BME280_temperature;BME280_humidity;BME280_pressure;Samples;Min_cycle;Max_cycle;Signal;HPM_P1;HPM_P2
2021/09/18 00:01:49;;;;;;;0.00;0.00;;;;;;;23.16;55.09;98379.97;5028996;28;20458;-82
2021/09/18 00:04:14;;;;;;;0.00;0.00;;;;;;;23.16;54.61;98382.69;5030570;28;20022;-83
2021/09/18 00:06:40;;;;;;;0.00;0.00;;;;;;;23.14;54.91;98382.28;5017723;28;20063;-84
2021/09/18 00:09:05;;;;;;;0.00;0.00;;;;;;;23.12;55.26;98384.59;5020008;28;20084;-80
2021/09/18 00:11:31;;;;;;;0.00;0.00;;;;;;;23.05;55.57;98389.19;5012876;28;20022;-80
2021/09/18 00:13:57;;;;;;;0.08;0.08;;;;;;;22.97;55.57;98386.41;5014330;28;20018;-80
2021/09/18 00:16:22;;;;;;;0.00;0.00;;;;;;;22.92;55.78;98383.22;5015827;28;20033;-78
2021/09/18 00:18:48;;;;;;;0.00;0.00;;;;;;;22.89;55.69;98383.97;5031176;28;20044;-81
2021/09/18 00:21:13;;;;;;;0.05;0.05;;;;;;;22.86;55.81;98383.56;5024617;28;20021;-79
2021/09/18 00:23:38;;;;;;;0.10;0.10;;;;;;;22.82;55.90;98374.56;5018706;28;20485;-78
2021/09/18 00:26:04;;;;;;;0.15;0.15;;;;;;;22.81;56.13;98381.19;5033428;28;20018;-78
2021/09/18 00:28:30;;;;;;;0.00;0.00;;;;;;;22.82;56.26;98388.19;5031312;28;20030;-79
2021/09/18 00:30:55;;;;;;;0.00;0.00;;;;;;;22.80;56.22;98392.44;5020102;28;20036;-80
2021/09/18 00:33:20;;;;;;;0.10;0.10;;;;;;;22.81;56.29;98391.28;5014323;28;20450;-81
2021/09/18 00:35:46;;;;;;;0.00;0.00;;;;;;;22.82;56.27;98407.28;5029774;28;20033;-78
2021/09/18 00:38:12;;;;;;;0.00;0.00;;;;;;;22.82;56.54;98411.94;5033801;28;20075;-80
2021/09/18 00:40:38;;;;;;;0.00;0.00;;;;;;;22.83;56.59;98413.53;5020697;28;20018;-77
2021/09/18 00:43:04;;;;;;;0.00;0.00;;;;;;;22.82;56.48;98420.13;5013832;28;20370;-79
2021/09/18 00:45:29;;;;;;;0.00;0.00;;;;;;;22.78;56.35;98416.59;5020887;28;20049;-80
2021/09/18 00:47:55;;;;;;;0.10;0.10;;;;;;;22.79;56.55;98420.88;5028177;28;20476;-82
2021/09/18 00:50:20;;;;;;;0.00;0.00;;;;;;;22.76;56.53;98427.84;5014033;28;20026;-80
2021/09/18 00:52:47;;;;;;;0.05;0.05;;;;;;;22.75;56.57;98422.78;5012186;28;20042;-82
2021/09/18 00:55:14;;;;;;;0.00;0.00;;;;;;;22.70;56.61;98430.13;5014769;28;20022;-80
2021/09/18 00:57:41;;;;;;;0.00;0.00;;;;;;;22.58;56.74;98424.16;5013154;28;20034;-82
2021/09/18 01:00:09;;;;;;;0.08;0.08;;;;;;;22.52;56.95;98418.22;5011722;28;20025;-82
2021/09/18 01:02:35;;;;;;;0.05;0.05;;;;;;;22.42;56.99;98421.63;5024809;28;20036;-80
2021/09/18 01:05:00;;;;;;;0.00;0.00;;;;;;;22.36;57.07;98419.19;5026262;28;20022;-82
2021/09/18 01:07:26;;;;;;;0.10;0.10;;;;;;;22.32;56.61;98414.84;5011685;28;20033;-82
2021/09/18 01:09:52;;;;;;;0.00;0.00;;;;;;;22.26;56.92;98425.28;5011979;28;20036;-81
2021/09/18 01:12:17;;;;;;;0.32;0.32;;;;;;;22.19;56.91;98438.81;5012584;28;20022;-80
2021/09/18 01:14:46;;;;;;;0.50;0.50;;;;;;;22.09;57.07;98437.50;5017144;28;20135;-83
2021/09/18 01:17:13;;;;;;;0.00;0.00;;;;;;;21.98;57.11;98436.59;5031184;28;20021;-81
2021/09/18 01:19:40;;;;;;;0.10;0.10;;;;;;;21.90;57.17;98438.44;5028945;28;20504;-80
2021/09/18 01:22:07;;;;;;;1.05;0.45;;;;;;;21.80;57.04;98437.13;5012126;28;20041;-81
2021/09/18 01:24:33;;;;;;;0.35;0.35;;;;;;;21.62;57.68;98428.69;5015085;28;20163;-80
2021/09/18 01:26:58;;;;;;;0.43;0.43;;;;;;;21.47;58.03;98429.56;5011966;28;20068;-81
2021/09/18 01:29:24;;;;;;;0.13;0.13;;;;;;;21.36;58.46;98429.38;5011321;28;20105;-80
2021/09/18 01:31:49;;;;;;;0.10;0.10;;;;;;;21.21;58.42;98423.69;5018758;28;20033;-79
2021/09/18 01:34:20;;;;;;;0.60;0.60;;;;;;;21.01;58.92;98416.78;5025251;28;20060;-76
2021/09/18 01:36:47;;;;;;;0.90;0.90;;;;;;;20.88;59.32;98414.19;5029125;28;20037;-79
2021/09/18 01:39:14;;;;;;;0.10;0.10;;;;;;;20.76;59.35;98407.00;5017852;28;20083;-82
2021/09/18 01:41:41;;;;;;;4.03;0.60;;;;;;;20.67;59.62;98405.63;5021515;28;20492;-84
2021/09/18 01:44:07;;;;;;;0.47;0.47;;;;;;;20.61;59.84;98407.84;5011560;28;20427;-85
2021/09/18 01:46:33;;;;;;;0.10;0.10;;;;;;;20.54;60.02;98411.19;5027795;28;20033;-83
2021/09/18 01:48:59;;;;;;;0.40;0.40;;;;;;;20.55;60.14;98412.00;5025144;28;20034;-80
2021/09/18 01:51:27;;;;;;;0.10;0.10;;;;;;;20.59;60.11;98408.22;5022373;28;20512;-82
2021/09/18 01:53:53;;;;;;;0.00;0.00;;;;;;;20.62;60.10;98396.63;5017538;28;20500;-84
2021/09/18 01:56:18;;;;;;;0.10;0.10;;;;;;;20.69;60.01;98397.88;5010674;28;20053;-82
2021/09/18 01:58:44;;;;;;;0.20;0.20;;;;;;;20.73;59.64;98391.41;5017246;28;20472;-82
2021/09/18 02:01:09;;;;;;;0.10;0.10;;;;;;;20.78;59.61;98384.91;5018027;28;20059;-80
2021/09/18 02:03:36;;;;;;;0.10;0.10;;;;;;;20.82;59.71;98385.75;5027380;28;20021;-81
2021/09/18 02:06:02;;;;;;;0.08;0.08;;;;;;;20.89;59.44;98388.59;5021268;28;20022;-82
2021/09/18 02:08:28;;;;;;;0.10;0.10;;;;;;;20.94;59.28;98392.94;5022721;28;20038;-84
2021/09/18 02:10:55;;;;;;;0.00;0.00;;;;;;;20.95;59.37;98389.88;5013877;28;20495;-76
2021/09/18 02:13:21;;;;;;;0.00;0.00;;;;;;;21.02;59.49;98386.50;5012277;28;20089;-80
2021/09/18 02:15:46;;;;;;;0.10;0.10;;;;;;;20.98;59.04;98393.00;5010244;28;20514;-77
2021/09/18 02:18:12;;;;;;;0.10;0.10;;;;;;;20.93;59.19;98399.53;5023593;28;20116;-78
2021/09/18 02:20:38;;;;;;;0.10;0.10;;;;;;;20.91;59.04;98394.47;5011548;28;20030;-77
2021/09/18 02:23:06;;;;;;;0.10;0.10;;;;;;;20.95;59.20;98405.41;5026405;28;20393;-80
2021/09/18 02:25:31;;;;;;;0.15;0.15;;;;;;;20.94;59.36;98401.88;5028440;28;20558;-77
2021/09/18 02:27:57;;;;;;;0.00;0.00;;;;;;;20.96;59.31;98406.97;5026516;28;20061;-78
2021/09/18 02:30:27;;;;;;;0.10;0.10;;;;;;;21.01;59.13;98412.09;5011976;28;20472;-79
2021/09/18 02:32:53;;;;;;;0.10;0.10;;;;;;;21.02;59.19;98421.03;5024425;28;20302;-76
2021/09/18 02:35:21;;;;;;;0.10;0.10;;;;;;;21.05;59.09;98425.75;5028367;28;20021;-78
2021/09/18 02:37:47;;;;;;;0.10;0.10;;;;;;;21.06;59.10;98430.06;5019931;28;20408;-84
2021/09/18 02:40:15;;;;;;;0.00;0.00;;;;;;;21.06;58.91;98433.56;5030107;28;20026;-79
2021/09/18 02:42:42;;;;;;;0.05;0.05;;;;;;;21.08;58.63;98428.53;5022599;28;20120;-80
2021/09/18 02:45:08;;;;;;;0.00;0.00;;;;;;;21.08;58.17;98423.09;5027970;28;20032;-82
2021/09/18 02:47:34;;;;;;;0.20;0.20;;;;;;;21.07;58.17;98426.97;5023184;28;20432;-82
2021/09/18 02:50:00;;;;;;;0.10;0.10;;;;;;;21.04;58.17;98416.81;5020898;28;20024;-84
2021/09/18 02:52:25;;;;;;;0.10;0.10;;;;;;;21.06;57.96;98419.97;5027851;28;20025;-82
2021/09/18 02:54:51;;;;;;;0.10;0.10;;;;;;;21.05;57.91;98423.81;5009851;28;20526;-80
2021/09/18 02:57:16;;;;;;;0.00;0.00;;;;;;;21.05;58.00;98420.31;5010096;28;20022;-83
2021/09/18 02:59:42;;;;;;;0.10;0.10;;;;;;;21.05;57.75;98420.31;5026988;28;20025;-82
2021/09/18 03:02:07;;;;;;;0.10;0.10;;;;;;;21.01;57.83;98417.53;5020215;28;20040;-80
2021/09/18 03:04:33;;;;;;;0.10;0.10;;;;;;;21.01;57.85;98414.06;5019378;28;20052;-84
2021/09/18 03:06:59;;;;;;;0.10;0.10;;;;;;;20.95;57.94;98406.16;5016289;28;20464;-84
2021/09/18 03:09:25;;;;;;;0.10;0.10;;;;;;;20.95;57.95;98399.97;5019305;28;20092;-84
2021/09/18 03:11:51;;;;;;;0.30;0.30;;;;;;;20.95;58.29;98410.84;5013335;28;20032;-81
2021/09/18 03:14:16;;;;;;;0.10;0.10;;;;;;;20.92;58.05;98406.09;5018531;28;20017;-82
2021/09/18 03:16:42;;;;;;;0.10;0.10;;;;;;;20.92;58.15;98411.53;5014482;28;20026;-80
2021/09/18 03:19:07;;;;;;;0.00;0.00;;;;;;;20.92;58.10;98416.97;5022125;28;20488;-81
2021/09/18 03:21:33;;;;;;;0.10;0.10;;;;;;;20.89;57.85;98421.22;5015165;28;20109;-79
2021/09/18 03:23:58;;;;;;;0.20;0.20;;;;;;;20.87;57.68;98422.72;5026483;28;20116;-79
2021/09/18 03:26:24;;;;;;;0.00;0.00;;;;;;;20.83;57.91;98416.44;5026051;28;20475;-80
2021/09/18 03:28:49;;;;;;;0.10;0.10;;;;;;;20.79;57.92;98411.72;5033311;28;20426;-81
2021/09/18 03:31:17;;;;;;;0.10;0.10;;;;;;;20.74;58.17;98408.53;5013814;28;20049;-83
2021/09/18 03:33:43;;;;;;;0.03;0.03;;;;;;;20.74;58.36;98420.16;5020926;28;20065;-79
2021/09/18 03:36:08;;;;;;;0.10;0.10;;;;;;;20.74;58.34;98422.09;5020499;28;20060;-81
2021/09/18 03:38:33;;;;;;;0.00;0.00;;;;;;;20.73;58.34;98421.31;5032362;28;20056;-80
2021/09/18 03:40:59;;;;;;;0.10;0.10;;;;;;;20.73;58.14;98423.25;5021350;28;20025;-79
2021/09/18 03:43:24;;;;;;;0.10;0.10;;;;;;;20.72;58.24;98427.88;5022431;28;20025;-80
2021/09/18 03:45:51;;;;;;;0.10;0.10;;;;;;;20.72;58.00;98427.88;5032907;28;20392;-81
2021/09/18 03:48:17;;;;;;;0.10;0.10;;;;;;;20.72;58.16;98427.09;5020537;28;20025;-80
2021/09/18 03:50:43;;;;;;;0.10;0.10;;;;;;;20.76;58.15;98444.25;5027766;28;20025;-78
2021/09/18 03:53:08;;;;;;;0.05;0.05;;;;;;;20.74;58.12;98436.47;5027134;28;20064;-84
2021/09/18 03:55:34;;;;;;;0.10;0.10;;;;;;;20.74;58.10;98439.19;5023395;28;20060;-81
2021/09/18 03:58:00;;;;;;;0.10;0.10;;;;;;;20.74;58.00;98431.03;5025963;28;20035;-78
2021/09/18 04:00:25;;;;;;;0.08;0.08;;;;;;;20.74;57.90;98438.41;5030715;28;20040;-78
2021/09/18 04:02:51;;;;;;;0.00;0.00;;;;;;;20.69;57.74;98422.34;5019537;28;20436;-82
2021/09/18 04:05:16;;;;;;;0.00;0.00;;;;;;;20.71;57.84;98423.56;5013131;28;20033;-78
2021/09/18 04:07:42;;;;;;;0.10;0.10;;;;;;;20.71;57.80;98420.84;5021866;28;20017;-80
2021/09/18 04:10:07;;;;;;;0.10;0.10;;;;;;;20.69;57.73;98414.19;5018297;28;20084;-79
2021/09/18 04:12:33;;;;;;;0.20;0.20;;;;;;;20.68;57.86;98429.72;5020618;28;20060;-81
2021/09/18 04:14:58;;;;;;;0.08;0.08;;;;;;;20.64;57.90;98420.69;5028338;28;20032;-78
2021/09/18 04:17:24;;;;;;;0.00;0.00;;;;;;;20.63;57.95;98417.22;5027077;28;20045;-80
2021/09/18 04:19:49;;;;;;;0.00;0.00;;;;;;;20.62;58.29;98431.16;5016725;28;20024;-79
2021/09/18 04:22:14;;;;;;;0.10;0.10;;;;;;;20.62;58.12;98420.28;5026885;28;20032;-79
2021/09/18 04:24:40;;;;;;;0.00;0.00;;;;;;;20.60;57.95;98417.94;5025797;28;20032;-79
2021/09/18 04:27:05;;;;;;;0.10;0.10;;;;;;;20.61;58.04;98416.00;5025793;28;20120;-80
2021/09/18 04:29:31;;;;;;;0.10;0.10;;;;;;;20.60;58.00;98408.97;5030612;28;20104;-78
2021/09/18 04:31:57;;;;;;;0.00;0.00;;;;;;;20.64;58.11;98404.41;5023880;28;20056;-79
2021/09/18 04:34:23;;;;;;;0.10;0.10;;;;;;;20.68;57.93;98397.13;5015106;28;20057;-80
2021/09/18 04:36:48;;;;;;;0.10;0.10;;;;;;;20.77;57.82;98407.78;5031472;28;20028;-80
2021/09/18 04:39:14;;;;;;;0.10;0.10;;;;;;;20.86;57.42;98402.91;5016430;28;20026;-84
2021/09/18 04:41:39;;;;;;;0.40;0.40;;;;;;;21.01;56.85;98397.75;5015130;28;20037;-81
2021/09/18 04:44:05;;;;;;;0.00;0.00;;;;;;;21.12;56.61;98398.69;5032005;28;20048;-81
2021/09/18 04:46:31;;;;;;;0.05;0.05;;;;;;;21.32;56.34;98391.25;5031245;28;20025;-80
2021/09/18 04:48:56;;;;;;;0.00;0.00;;;;;;;21.55;55.98;98387.72;5022184;28;20029;-82
2021/09/18 04:51:22;;;;;;;0.10;0.10;;;;;;;21.79;55.25;98397.44;5017592;28;20136;-81
2021/09/18 04:53:47;;;;;;;0.00;0.00;;;;;;;22.06;54.77;98389.25;5023641;28;20025;-79
2021/09/18 04:56:12;;;;;;;0.00;0.00;;;;;;;22.34;53.90;98391.53;5030487;28;20496;-80
2021/09/18 04:58:38;;;;;;;0.05;0.05;;;;;;;22.62;53.44;98394.97;5021615;28;20095;-77
2021/09/18 05:01:03;;;;;;;0.03;0.03;;;;;;;22.94;52.46;98400.78;5014354;28;20026;-81
2021/09/18 05:03:29;;;;;;;0.00;0.00;;;;;;;23.21;51.37;98395.19;5029242;28;20021;-79
2021/09/18 05:05:54;;;;;;;0.00;0.00;;;;;;;23.43;50.40;98400.84;5017192;28;20041;-80
2021/09/18 05:08:19;;;;;;;0.05;0.05;;;;;;;23.57;49.94;98411.06;5013261;28;20040;-81
2021/09/18 05:10:45;;;;;;;0.00;0.00;;;;;;;23.64;49.58;98411.91;5011565;28;20470;-83
2021/09/18 05:13:10;;;;;;;0.00;0.00;;;;;;;23.62;49.48;98411.50;5016799;28;20014;-81
2021/09/18 05:15:36;;;;;;;0.05;0.05;;;;;;;23.73;49.52;98417.03;5030695;28;20040;-79
2021/09/18 05:18:01;;;;;;;0.00;0.00;;;;;;;23.86;49.38;98416.72;5019407;28;20492;-81
2021/09/18 05:20:27;;;;;;;0.00;0.00;;;;;;;23.99;49.23;98415.28;5015208;28;20026;-80
2021/09/18 05:22:52;;;;;;;1.15;0.40;;;;;;;24.11;48.80;98417.69;5015121;28;20063;-78
2021/09/18 05:25:18;;;;;;;0.00;0.00;;;;;;;24.17;48.66;98407.19;5030989;28;20017;-76
2021/09/18 05:27:43;;;;;;;0.00;0.00;;;;;;;24.36;48.64;98413.50;5021665;28;20037;-76
2021/09/18 05:30:10;;;;;;;0.10;0.10;;;;;;;24.51;48.54;98412.38;5030882;28;20040;-77
2021/09/18 05:32:35;;;;;;;0.00;0.00;;;;;;;24.64;47.86;98415.53;5019667;28;20026;-76
2021/09/18 05:35:01;;;;;;;0.00;0.00;;;;;;;24.78;47.04;98418.34;5018979;28;20028;-78
2021/09/18 05:37:26;;;;;;;0.00;0.00;;;;;;;24.89;46.98;98401.97;5011471;28;20044;-78
2021/09/18 05:39:52;;;;;;;0.73;0.20;;;;;;;25.01;45.95;98402.75;5013135;28;20492;-78
2021/09/18 05:42:17;;;;;;;0.00;0.00;;;;;;;25.13;45.86;98396.91;5011196;28;20097;-79
2021/09/18 05:44:43;;;;;;;0.00;0.00;;;;;;;25.19;45.93;98400.81;5027607;28;20035;-79
2021/09/18 05:47:08;;;;;;;0.00;0.00;;;;;;;25.29;45.78;98410.19;5011866;28;20041;-78
2021/09/18 05:49:34;;;;;;;0.00;0.00;;;;;;;25.38;45.36;98402.41;5019327;28;20361;-78
2021/09/18 05:51:59;;;;;;;0.20;0.20;;;;;;;25.46;45.29;98400.44;5024016;28;20022;-77
2021/09/18 05:54:27;;;;;;;0.00;0.00;;;;;;;25.57;44.53;98403.97;5025159;28;20025;-77
2021/09/18 05:56:52;;;;;;;0.10;0.10;;;;;;;25.69;44.81;98402.00;5031754;28;20025;-75
2021/09/18 05:59:18;;;;;;;0.00;0.00;;;;;;;25.81;44.86;98417.25;5027232;28;20491;-77
2021/09/18 06:01:43;;;;;;;0.00;0.00;;;;;;;25.86;44.17;98403.91;5031254;28;20116;-76
2021/09/18 06:04:08;;;;;;;0.00;0.00;;;;;;;25.97;44.12;98408.59;5030330;28;20021;-75
2021/09/18 06:06:34;;;;;;;0.10;0.10;;;;;;;26.05;44.09;98416.41;5018597;28;20049;-76
2021/09/18 06:08:59;;;;;;;0.00;0.00;;;;;;;26.12;44.35;98412.91;5023410;28;20496;-76
2021/09/18 06:11:25;;;;;;;0.00;0.00;;;;;;;26.23;43.99;98412.84;5014179;28;20079;-84
2021/09/18 06:13:50;;;;;;;0.00;0.00;;;;;;;26.33;44.37;98409.28;5015926;28;20083;-82
2021/09/18 06:16:16;;;;;;;0.00;0.00;;;;;;;26.41;43.61;98406.53;5027607;28;20025;-78
2021/09/18 06:18:41;;;;;;;0.10;0.10;;;;;;;26.51;43.97;98416.63;5031157;28;20048;-76
2021/09/18 06:21:08;;;;;;;0.00;0.00;;;;;;;26.65;43.54;98418.53;5020312;28;20021;-76
2021/09/18 06:23:37;;;;;;;0.03;0.03;;;;;;;26.77;43.51;98407.13;5020766;28;20092;-77
2021/09/18 06:26:03;;;;;;;0.00;0.00;;;;;;;26.96;43.39;98416.81;5010082;28;20113;-78
2021/09/18 06:28:28;;;;;;;0.00;0.00;;;;;;;27.20;43.08;98419.03;5026462;28;20017;-81
2021/09/18 06:30:54;;;;;;;0.00;0.00;;;;;;;27.38;42.36;98416.91;5020228;28;20117;-78
2021/09/18 06:33:19;;;;;;;0.00;0.00;;;;;;;27.60;42.32;98416.72;5024974;28;20064;-77
2021/09/18 06:35:45;;;;;;;0.00;0.00;;;;;;;27.80;41.85;98423.19;5010294;28;20033;-77
2021/09/18 06:38:11;;;;;;;0.00;0.00;;;;;;;28.01;41.06;98426.91;5011304;28;20469;-77
2021/09/18 06:40:36;;;;;;;0.00;0.00;;;;;;;28.16;40.60;98437.78;5011577;28;20032;-77
2021/09/18 06:43:02;;;;;;;0.00;0.00;;;;;;;28.34;40.76;98435.59;5010629;28;20117;-78
2021/09/18 06:45:27;;;;;;;0.00;0.00;;;;;;;28.52;39.29;98440.13;5011459;28;20105;-78
2021/09/18 06:47:55;;;;;;;0.00;0.00;;;;;;;28.66;38.25;98444.66;5009966;28;20135;-78
2021/09/18 06:50:21;;;;;;;0.00;0.00;;;;;;;28.80;38.90;98451.97;5011276;28;20022;-78
2021/09/18 06:52:46;;;;;;;0.00;0.00;;;;;;;28.90;38.93;98449.06;5011051;28;20025;-77
2021/09/18 06:55:12;;;;;;;0.00;0.00;;;;;;;29.05;37.95;98457.09;5011335;28;20028;-78
2021/09/18 06:57:38;;;;;;;0.00;0.00;;;;;;;29.13;37.43;98455.81;5010112;28;20125;-79
2021/09/18 07:02:29;;;;;;;0.00;0.00;;;;;;;29.27;38.10;98452.06;5010637;28;20507;-78
2021/09/18 07:04:54;;;;;;;0.30;0.30;;;;;;;29.27;37.28;98452.06;5010194;28;20454;-78
2021/09/18 07:07:20;;;;;;;0.55;0.55;;;;;;;29.21;37.38;98443.50;5011127;28;20033;-78
2021/09/18 07:09:45;;;;;;;0.10;0.10;;;;;;;29.16;37.54;98444.00;5011295;28;20058;-78
2021/09/18 07:12:11;;;;;;;0.10;0.10;;;;;;;29.08;37.15;98429.53;5010965;28;20436;-78
2021/09/18 07:14:36;;;;;;;0.28;0.28;;;;;;;29.05;37.70;98435.88;5011389;28;20034;-78
2021/09/18 07:17:02;;;;;;;0.20;0.20;;;;;;;29.01;38.26;98432.38;5009956;28;20109;-78
2021/09/18 07:19:27;;;;;;;0.00;0.00;;;;;;;29.02;37.69;98436.69;5010723;28;20018;-78
2021/09/18 07:21:53;;;;;;;0.00;0.00;;;;;;;29.03;37.57;98434.75;5013072;28;20072;-78
2021/09/18 07:24:18;;;;;;;0.00;0.00;;;;;;;28.98;37.52;98432.44;5011279;28;20026;-78
2021/09/18 07:26:44;;;;;;;0.00;0.00;;;;;;;29.00;37.52;98439.13;5011122;28;20022;-78
2021/09/18 07:29:09;;;;;;;0.00;0.00;;;;;;;29.04;37.20;98437.06;5010960;28;20389;-78
2021/09/18 07:31:35;;;;;;;0.30;0.30;;;;;;;29.00;37.58;98430.84;5010478;28;20037;-78
2021/09/18 07:34:00;;;;;;;0.40;0.40;;;;;;;28.91;37.32;98431.34;5011039;28;20097;-77
2021/09/18 07:36:25;;;;;;;0.00;0.00;;;;;;;28.89;37.40;98432.97;5009638;28;20124;-78
2021/09/18 07:38:51;;;;;;;0.20;0.20;;;;;;;28.88;37.52;98442.41;5011065;28;20474;-77
2021/09/18 07:41:16;;;;;;;0.20;0.20;;;;;;;28.80;37.62;98430.72;5010363;28;20030;-77
2021/09/18 07:43:43;;;;;;;0.00;0.00;;;;;;;28.80;37.60;98446.47;5009904;28;20381;-77
2021/09/18 07:46:09;;;;;;;0.00;0.00;;;;;;;28.75;37.82;98440.22;5009597;28;20465;-77
2021/09/18 07:48:34;;;;;;;0.20;0.20;;;;;;;28.69;37.80;98446.63;5009531;28;20029;-78
2021/09/18 07:51:00;;;;;;;0.00;0.00;;;;;;;28.64;37.91;98447.03;5009721;28;20131;-77
2021/09/18 07:53:27;;;;;;;0.65;0.65;;;;;;;28.52;37.66;98443.66;5009421;28;20025;-77
2021/09/18 07:55:52;;;;;;;0.10;0.10;;;;;;;28.37;38.48;98445.78;5013121;28;20472;-77
2021/09/18 07:58:18;;;;;;;0.10;0.10;;;;;;;28.33;38.75;98458.81;5014364;28;20037;-77
2021/09/18 08:00:47;;;;;;;0.13;0.13;;;;;;;28.23;38.76;98462.47;5014050;28;20030;-77
2021/09/18 08:03:14;;;;;;;0.00;0.00;;;;;;;28.19;38.37;98459.75;5014398;28;20025;-77
2021/09/18 08:05:40;;;;;;;0.00;0.00;;;;;;;28.11;38.81;98459.06;5014131;28;20030;-77
2021/09/18 08:08:06;;;;;;;0.10;0.10;;;;;;;28.10;38.64;98468.47;5013050;28;20049;-77
2021/09/18 08:10:32;;;;;;;0.00;0.00;;;;;;;28.06;38.90;98472.44;5012535;28;20076;-77
2021/09/18 08:12:58;;;;;;;0.22;0.22;;;;;;;28.01;39.17;98472.88;5013935;28;20515;-77
2021/09/18 08:15:23;;;;;;;0.00;0.00;;;;;;;27.91;39.41;98466.28;5013875;28;20053;-79
2021/09/18 08:17:50;;;;;;;0.03;0.03;;;;;;;27.79;39.64;98468.38;5014113;28;20437;-78
2021/09/18 08:20:17;;;;;;;0.00;0.00;;;;;;;27.74;39.93;98466.03;5014224;28;20045;-77
2021/09/18 08:22:43;;;;;;;0.08;0.08;;;;;;;27.68;40.44;98466.91;5013749;28;20021;-77
2021/09/18 08:25:10;;;;;;;0.00;0.00;;;;;;;27.64;40.41;98462.22;5013898;28;20022;-77
2021/09/18 08:27:36;;;;;;;2.08;0.65;;;;;;;27.56;40.75;98449.75;5012365;28;20026;-77
2021/09/18 08:30:01;;;;;;;1.65;0.55;;;;;;;27.59;40.74;98453.63;5013431;28;20076;-78
2021/09/18 08:32:27;;;;;;;0.00;0.00;;;;;;;27.57;40.54;98440.28;5013423;28;20033;-78
2021/09/18 08:34:52;;;;;;;0.00;0.00;;;;;;;27.66;40.96;98444.53;5013830;28;20021;-78
2021/09/18 08:37:18;;;;;;;0.15;0.15;;;;;;;27.69;40.89;98439.00;5012719;28;20116;-78
2021/09/18 08:39:43;;;;;;;0.52;0.10;;;;;;;27.71;41.20;98446.84;5013136;28;20022;-77
2021/09/18 08:42:09;;;;;;;0.10;0.10;;;;;;;27.71;41.26;98439.41;5012246;28;20088;-77
2021/09/18 08:44:35;;;;;;;0.00;0.00;;;;;;;27.76;41.41;98427.97;5013225;28;20076;-77
2021/09/18 08:47:02;;;;;;;0.10;0.10;;;;;;;27.85;40.81;98430.22;5013472;28;20393;-77
2021/09/18 08:49:29;;;;;;;0.25;0.25;;;;;;;27.93;40.63;98428.97;5013072;28;20114;-76
2021/09/18 08:51:54;;;;;;;0.38;0.38;;;;;;;27.97;40.14;98426.19;5013080;28;20096;-77
2021/09/18 08:54:20;;;;;;;0.00;0.00;;;;;;;28.07;40.20;98421.78;5011543;28;20025;-78
2021/09/18 08:56:46;;;;;;;0.05;0.05;;;;;;;28.15;39.66;98415.03;5013300;28;20030;-78
2021/09/18 08:59:11;;;;;;;0.00;0.00;;;;;;;28.20;39.92;98420.06;5011854;28;20025;-78
2021/09/18 09:01:36;;;;;;;1.10;0.32;;;;;;;28.26;40.06;98423.16;5013083;28;20029;-77
2021/09/18 09:04:06;;;;;;;0.17;0.17;;;;;;;28.35;39.35;98426.16;5013269;28;20022;-77
2021/09/18 09:06:51;;;;;;;0.20;0.20;;;;;;;28.44;38.73;98415.47;5012367;28;20037;-77
2021/09/18 09:09:17;;;;;;;0.00;0.00;;;;;;;28.56;38.81;98413.34;5012986;28;20098;-78
2021/09/18 09:11:51;;;;;;;0.25;0.25;;;;;;;28.63;38.79;98420.75;5011388;28;20532;-78
2021/09/18 09:14:17;;;;;;;0.10;0.10;;;;;;;28.78;38.60;98419.34;5012805;28;20022;-78
2021/09/18 09:16:58;;;;;;;0.15;0.15;;;;;;;28.85;38.58;98424.00;5012622;28;20417;-78
2021/09/18 09:19:24;;;;;;;0.30;0.20;;;;;;;28.94;37.96;98417.97;5012645;28;20044;-77
2021/09/18 09:21:54;;;;;;;0.52;0.52;;;;;;;29.03;37.51;98409.97;5013005;28;20384;-78
2021/09/18 09:24:22;;;;;;;0.10;0.10;;;;;;;29.09;37.67;98391.78;5011286;28;20037;-77
2021/09/18 09:27:10;;;;;;;0.13;0.13;;;;;;;29.22;37.85;98391.97;5012593;28;20030;-78
2021/09/18 09:29:52;;;;;;;1.13;0.40;;;;;;;29.28;37.39;98387.53;5012284;28;20041;-77
2021/09/18 09:32:38;;;;;;;0.00;0.00;;;;;;;29.30;36.56;98387.94;5012529;28;20022;-77
2021/09/18 09:35:08;;;;;;;0.22;0.15;;;;;;;29.37;36.85;98363.03;5012490;28;20026;-77
2021/09/18 09:37:33;;;;;;;0.40;0.40;;;;;;;29.42;36.58;98359.00;5011988;28;20040;-77
2021/09/18 09:40:02;;;;;;;0.20;0.20;;;;;;;29.50;36.76;98351.38;5012030;28;20389;-77
2021/09/18 09:42:32;;;;;;;0.20;0.20;;;;;;;29.55;36.38;98353.66;5012129;28;20026;-76
2021/09/18 09:45:15;;;;;;;0.13;0.13;;;;;;;29.68;36.46;98359.34;5012011;28;20033;-77
2021/09/18 09:47:41;;;;;;;0.75;0.32;;;;;;;29.76;36.25;98360.75;5012016;28;20025;-77
2021/09/18 09:50:07;;;;;;;0.00;0.00;;;;;;;29.88;36.37;98353.81;5010888;28;20033;-77
2021/09/18 09:52:34;;;;;;;0.00;0.00;;;;;;;29.94;36.28;98363.19;5010685;28;20022;-77
2021/09/18 09:55:07;;;;;;;0.00;0.00;;;;;;;29.98;35.52;98363.91;5012278;28;20453;-77
2021/09/18 09:57:33;;;;;;;0.00;0.00;;;;;;;30.01;35.98;98371.31;5011810;28;20037;-77
2021/09/18 10:00:09;;;;;;;0.00;0.00;;;;;;;30.04;35.66;98369.66;5011763;28;20381;-79
2021/09/18 10:02:36;;;;;;;0.08;0.08;;;;;;;30.07;35.40;98368.84;5012073;28;20366;-77
2021/09/18 10:05:12;;;;;;;0.00;0.00;;;;;;;30.10;34.56;98368.00;5011919;28;20084;-77
2021/09/18 10:07:38;;;;;;;0.70;0.45;;;;;;;30.11;33.95;98353.00;5011719;28;20026;-78
2021/09/18 10:10:07;;;;;;;0.00;0.00;;;;;;;30.11;33.93;98368.75;5010772;28;20029;-77
2021/09/18 10:12:33;;;;;;;1.40;0.45;;;;;;;30.16;34.78;98360.78;5011581;28;20034;-76
2021/09/18 10:15:04;;;;;;;0.20;0.20;;;;;;;30.22;34.73;98349.25;5012386;28;20461;-79
2021/09/18 10:17:32;;;;;;;0.00;0.00;;;;;;;30.26;34.84;98353.50;5011078;28;20037;-77
2021/09/18 10:25:18;;;;;;;0.00;0.00;;;;;;;30.46;32.82;98331.38;5011397;28;20036;-77
2021/09/18 10:28:01;;;;;;;0.20;0.20;;;;;;;30.45;33.17;98321.53;5011535;28;20034;-77
2021/09/18 10:30:33;;;;;;;0.00;0.00;;;;;;;30.54;32.94;98328.47;5011449;28;20022;-77
2021/09/18 10:33:00;;;;;;;0.10;0.10;;;;;;;30.53;32.66;98327.72;5010450;28;20025;-78
2021/09/18 10:35:28;;;;;;;0.00;0.00;;;;;;;30.52;32.47;98325.38;5012123;28;20026;-77
2021/09/18 10:37:53;;;;;;;0.13;0.13;;;;;;;30.43;32.84;98334.19;5011920;28;20034;-78
2021/09/18 10:40:19;;;;;;;0.22;0.22;;;;;;;30.28;32.86;98331.75;5011528;28;20021;-79
2021/09/18 10:42:48;;;;;;;0.10;0.10;;;;;;;30.22;32.87;98335.47;5011502;28;20026;-79
2021/09/18 10:45:16;;;;;;;0.00;0.00;;;;;;;30.11;32.58;98335.69;5011584;28;20619;-76
2021/09/18 10:47:52;;;;;;;0.00;0.00;;;;;;;30.02;32.54;98339.00;5011376;28;20030;-78
2021/09/18 10:50:24;;;;;;;0.20;0.20;;;;;;;29.92;32.66;98331.72;5011547;28;20108;-77
2021/09/18 10:53:11;;;;;;;0.13;0.13;;;;;;;29.80;32.61;98311.84;5011048;28;20025;-78
2021/09/18 10:55:58;;;;;;;0.17;0.10;;;;;;;29.64;32.76;98293.28;5011057;28;20087;-78
2021/09/18 10:58:25;;;;;;;0.00;0.00;;;;;;;29.62;33.07;98306.69;5011278;28;20476;-79
2021/09/18 11:00:54;;;;;;;0.15;0.15;;;;;;;29.58;32.96;98303.25;5011144;28;20018;-79
2021/09/18 11:03:40;;;;;;;0.00;0.00;;;;;;;29.54;32.92;98308.03;5011388;28;20038;-77
2021/09/18 11:06:07;;;;;;;0.20;0.20;;;;;;;29.46;33.46;98295.59;5010105;28;20022;-77
2021/09/18 11:08:35;;;;;;;0.08;0.08;;;;;;;29.35;33.52;98271.00;5011119;28;20033;-79
2021/09/18 11:11:14;;;;;;;0.38;0.38;;;;;;;29.24;33.67;98279.44;5011018;28;20083;-78
2021/09/18 11:13:44;;;;;;;0.38;0.35;;;;;;;29.19;33.83;98285.44;5010868;28;20539;-78
2021/09/18 11:16:21;;;;;;;0.52;0.52;;;;;;;29.14;33.99;98296.91;5011317;28;20084;-77
2021/09/18 11:18:52;;;;;;;0.05;0.05;;;;;;;29.07;34.05;98317.88;5010973;28;20133;-78
2021/09/18 11:21:38;;;;;;;0.15;0.15;;;;;;;29.02;34.10;98323.09;5011145;28;20038;-77
2021/09/18 11:24:15;;;;;;;0.00;0.00;;;;;;;28.96;34.30;98325.53;5011371;28;20064;-77
2021/09/18 11:26:41;;;;;;;;;;;;;;;28.88;34.35;98319.38;5011756;28;20018;-77
2021/09/18 11:29:09;;;;;;;0.00;0.00;;;;;;;28.84;34.68;98323.38;5012522;28;19905;-77
2021/09/18 11:31:38;;;;;;;0.00;0.00;;;;;;;28.80;34.71;98325.41;5014324;28;20026;-78
2021/09/18 11:34:05;;;;;;;0.10;0.10;;;;;;;28.80;34.99;98330.91;5014713;28;20025;-78
2021/09/18 11:36:42;;;;;;;0.35;0.35;;;;;;;28.81;35.13;98347.00;5013239;28;20030;-78
2021/09/18 11:39:08;;;;;;;0.00;0.00;;;;;;;28.82;35.11;98342.25;5014350;28;20022;-77
2021/09/18 11:41:34;;;;;;;3.55;1.35;;;;;;;28.80;34.91;98342.69;5014062;28;20080;-78